Time;durP1;ratioP1;P1;durP2;ratioP2;P2;SDS_P1;SDS_P2;PMS_P1;PMS_P2;Temp;Humidity;BMP_temperature;BMP_pressure;BME280_temperature;BME280_humidity;BME280_pressure;Samples;Min_cycle;Max_cycle;Signal;HPM_P1;HPM_P2
2023/09/13 00:01:45;;;;;;;0.00;0.00;;;;;;;23.30;83.54;99843.44;5065225;28;20512;-64
2023/09/13 00:04:11;;;;;;;0.00;0.00;;;;;;;23.22;82.78;99843.22;5064477;28;20115;-63
2023/09/13 00:06:37;;;;;;;0.10;0.10;;;;;;;23.20;82.34;99837.94;5062568;28;20029;-63
2023/09/13 00:09:03;;;;;;;0.00;0.00;;;;;;;23.17;82.51;99848.19;5067631;28;20036;-63
2023/09/13 00:11:29;;;;;;;0.00;0.00;;;;;;;23.08;83.05;99844.41;5061781;28;20040;-63
2023/09/13 00:13:54;;;;;;;0.03;0.03;;;;;;;23.13;82.51;99853.00;5065621;28;20097;-64
2023/09/13 00:16:21;;;;;;;0.10;0.10;;;;;;;23.13;83.02;99850.31;5065175;28;20533;-63
2023/09/13 00:18:46;;;;;;;0.00;0.00;;;;;;;23.16;83.22;99858.16;5062922;28;20020;-63
2023/09/13 00:21:12;;;;;;;0.10;0.10;;;;;;;23.10;83.81;99863.28;5065610;28;20107;-63
2023/09/13 00:23:38;;;;;;;0.10;0.10;;;;;;;23.01;84.51;99859.53;5059150;28;20025;-63
2023/09/13 00:26:03;;;;;;;0.00;0.00;;;;;;;22.88;83.63;99858.81;5048058;28;20035;-63
2023/09/13 00:28:29;;;;;;;0.10;0.10;;;;;;;22.87;84.72;99867.97;5053865;28;20024;-63
2023/09/13 00:30:54;;;;;;;0.05;0.05;;;;;;;22.82;85.94;99859.34;5064831;28;20040;-63
2023/09/13 00:33:20;;;;;;;0.10;0.10;;;;;;;22.75;86.29;99871.72;5054275;28;20024;-63
2023/09/13 00:35:46;;;;;;;0.10;0.10;;;;;;;22.72;86.00;99874.69;5065065;28;20499;-63
2023/09/13 00:38:11;;;;;;;0.10;0.10;;;;;;;22.70;85.79;99868.53;5065828;28;20031;-63
2023/09/13 00:40:37;;;;;;;0.10;0.10;;;;;;;22.74;85.42;99867.28;5054210;28;20036;-64
2023/09/13 00:43:02;;;;;;;0.10;0.10;;;;;;;22.66;84.92;99853.53;5050424;28;20055;-63
2023/09/13 00:45:31;;;;;;;0.00;0.00;;;;;;;22.69;85.36;99858.69;5066895;28;20025;-63
2023/09/13 00:47:57;;;;;;;0.00;0.00;;;;;;;22.73;85.04;99876.44;5066843;28;20024;-63
2023/09/13 00:50:23;;;;;;;0.10;0.10;;;;;;;22.72;84.17;99866.56;5062853;28;20381;-63
2023/09/13 00:52:49;;;;;;;0.10;0.10;;;;;;;22.75;84.26;99871.72;5069011;28;20074;-63
2023/09/13 00:55:18;;;;;;;0.10;0.10;;;;;;;22.74;84.16;99866.41;5065823;28;20032;-63
2023/09/13 00:57:45;;;;;;;0.10;0.10;;;;;;;22.73;83.96;99875.56;5050728;28;20024;-63
2023/09/13 01:00:39;;;;;;;0.08;0.08;;;;;;;22.67;84.06;99881.50;5063860;28;20024;-64
2023/09/13 01:03:06;;;;;;;0.10;0.10;;;;;;;22.66;83.86;99883.34;5047535;28;20040;-63
2023/09/13 01:05:31;;;;;;;0.10;0.10;;;;;;;22.66;83.67;99891.47;5065362;28;20039;-63
2023/09/13 01:07:57;;;;;;;0.10;0.10;;;;;;;22.66;83.78;99886.06;5062529;28;20036;-63
2023/09/13 01:10:22;;;;;;;0.10;0.10;;;;;;;22.67;83.60;99897.78;5066286;28;20036;-63
2023/09/13 01:12:48;;;;;;;0.10;0.10;;;;;;;22.62;83.49;99890.00;5063811;28;20174;-63
2023/09/13 01:15:13;;;;;;;0.10;0.10;;;;;;;22.59;83.90;99903.81;5063796;28;20032;-64
2023/09/13 01:18:00;;;;;;;0.00;0.00;;;;;;;22.62;83.76;99902.72;5065955;28;20028;-64
2023/09/13 01:20:48;;;;;;;0.10;0.10;;;;;;;22.54;84.23;99907.91;5052765;28;20538;-63
2023/09/13 01:23:41;;;;;;;0.10;0.10;;;;;;;22.47;84.58;99896.66;5054431;28;20365;-64
2023/09/13 01:26:45;;;;;;;0.10;0.10;;;;;;;22.47;84.88;99888.53;5046539;28;20075;-64
2023/09/13 01:29:14;;;;;;;0.00;0.00;;;;;;;22.43;85.34;99873.53;5060950;28;20467;-64
2023/09/13 01:31:41;;;;;;;0.00;0.00;;;;;;;22.35;86.25;99867.03;5047015;28;20035;-64
2023/09/13 01:34:06;;;;;;;0.10;0.10;;;;;;;22.27;86.71;99864.97;5057430;28;20087;-63
2023/09/13 01:36:32;;;;;;;0.10;0.10;;;;;;;22.15;87.25;99874.97;5058341;28;20029;-63
2023/09/13 01:38:57;;;;;;;0.08;0.08;;;;;;;22.05;87.85;99878.53;5053272;28;20028;-63
2023/09/13 01:41:31;;;;;;;0.10;0.10;;;;;;;21.98;88.07;99875.47;5061924;28;20033;-63
2023/09/13 01:43:58;;;;;;;0.10;0.10;;;;;;;21.97;88.20;99870.19;5079176;28;20410;-64
2023/09/13 01:46:28;;;;;;;0.00;0.00;;;;;;;21.95;88.36;99861.31;5065622;28;20020;-63
2023/09/13 01:48:56;;;;;;;0.10;0.10;;;;;;;21.94;88.69;99862.31;5065383;28;20028;-63
2023/09/13 01:51:25;;;;;;;0.10;0.10;;;;;;;21.79;89.03;99841.91;5065130;28;20120;-63
2023/09/13 01:53:50;;;;;;;0.10;0.10;;;;;;;22.00;88.94;99875.34;5064069;28;20357;-64
2023/09/13 01:56:21;;;;;;;0.10;0.10;;;;;;;21.97;88.73;99875.59;5067757;28;20025;-64
2023/09/13 01:58:50;;;;;;;0.10;0.10;;;;;;;21.96;88.90;99890.97;5069906;28;20024;-63
2023/09/13 02:01:18;;;;;;;0.10;0.10;;;;;;;21.92;88.87;99886.81;5054707;28;20571;-63
2023/09/13 02:03:44;;;;;;;0.10;0.10;;;;;;;21.93;89.16;99890.38;5054886;28;20029;-63
2023/09/13 02:06:10;;;;;;;0.10;0.10;;;;;;;21.88;88.94;99898.88;5063405;28;20028;-63
2023/09/13 02:08:38;;;;;;;0.10;0.10;;;;;;;21.84;89.65;99902.84;5059907;28;20036;-63
2023/09/13 02:11:06;;;;;;;0.10;0.10;;;;;;;21.87;89.59;99899.00;5060584;28;20114;-63
2023/09/13 02:13:32;;;;;;;0.10;0.10;;;;;;;21.88;89.56;99908.84;5063732;28;20348;-63
2023/09/13 02:15:57;;;;;;;0.10;0.10;;;;;;;21.89;89.88;99905.16;5063942;28;20106;-63
2023/09/13 02:18:23;;;;;;;0.10;0.10;;;;;;;21.87;90.34;99902.59;5056413;28;20472;-63
2023/09/13 02:20:48;;;;;;;0.10;0.10;;;;;;;21.98;89.96;99909.81;5066478;28;20371;-63
2023/09/13 02:23:13;;;;;;;0.10;0.10;;;;;;;22.01;89.86;99914.97;5066179;28;20028;-64
2023/09/13 02:25:45;;;;;;;0.10;0.10;;;;;;;22.02;89.28;99919.44;5067297;28;20032;-64
2023/09/13 02:28:11;;;;;;;0.10;0.10;;;;;;;22.01;89.99;99914.97;5063941;28;20035;-63
2023/09/13 02:30:38;;;;;;;0.10;0.10;;;;;;;22.03;89.82;99918.44;5068726;28;20523;-63
2023/09/13 02:33:04;;;;;;;0.10;0.10;;;;;;;22.05;90.09;99924.59;5065051;28;20029;-64
2023/09/13 02:35:30;;;;;;;0.10;0.10;;;;;;;22.07;90.03;99919.94;5069076;28;20032;-64
2023/09/13 02:37:57;;;;;;;0.10;0.10;;;;;;;22.10;90.09;99925.09;5069258;28;20106;-64
2023/09/13 02:40:22;;;;;;;0.10;0.10;;;;;;;22.09;89.98;99928.78;5065288;28;20059;-64
2023/09/13 02:42:48;;;;;;;0.10;0.10;;;;;;;22.10;89.57;99933.22;5069415;28;20060;-63
2023/09/13 02:45:13;;;;;;;0.10;0.10;;;;;;;22.14;89.46;99926.56;5062536;28;20039;-63
2023/09/13 02:47:39;;;;;;;0.10;0.10;;;;;;;22.18;88.95;99933.44;5050245;28;20040;-64
2023/09/13 02:50:05;;;;;;;0.10;0.10;;;;;;;22.25;88.72;99934.69;5068991;28;20117;-63
2023/09/13 02:52:32;;;;;;;0.10;0.10;;;;;;;22.29;88.91;99925.28;5068612;28;20032;-63
2023/09/13 02:54:59;;;;;;;0.10;0.10;;;;;;;22.35;88.88;99904.97;5053468;28;20019;-64
2023/09/13 02:57:24;;;;;;;0.10;0.10;;;;;;;22.35;89.14;99905.84;5071818;28;20079;-64
2023/09/13 02:59:50;;;;;;;0.10;0.10;;;;;;;22.30;89.72;99910.78;5061999;28;20595;-63
2023/09/13 03:02:16;;;;;;;0.10;0.10;;;;;;;22.22;89.59;99902.41;5047462;28;20136;-63
2023/09/13 03:04:41;;;;;;;0.10;0.10;;;;;;;22.13;89.99;99920.28;5065389;28;20080;-63
2023/09/13 03:07:08;;;;;;;0.10;0.10;;;;;;;22.08;91.03;99921.63;5036501;28;20028;-63
2023/09/13 03:09:34;;;;;;;0.10;0.10;;;;;;;22.06;91.93;99923.59;5061989;28;20079;-64
2023/09/13 03:12:01;;;;;;;0.10;0.10;;;;;;;22.01;92.19;99923.09;5048610;28;20701;-63
2023/09/13 03:14:27;;;;;;;0.10;0.10;;;;;;;21.94;93.68;99928.16;5063916;28;20020;-63
2023/09/13 03:16:53;;;;;;;0.10;0.10;;;;;;;21.86;94.50;99924.38;5066732;28;20454;-63
2023/09/13 03:19:18;;;;;;;0.10;0.10;;;;;;;21.84;94.84;99919.09;5065719;28;20333;-62
2023/09/13 03:21:44;;;;;;;0.10;0.10;;;;;;;;;;5055980;28;20039;-63
2023/09/13 03:24:09;;;;;;;0.10;0.10;;;;;;;21.83;95.04;99911.91;5057365;28;20060;-63
2023/09/13 03:26:35;;;;;;;0.10;0.10;;;;;;;21.92;94.69;99899.50;5064182;28;20059;-63
2023/09/13 03:29:01;;;;;;;0.10;0.10;;;;;;;21.85;94.61;99898.25;5051026;28;20043;-63
2023/09/13 03:31:27;;;;;;;0.10;0.10;;;;;;;21.82;95.27;99893.09;5044107;28;20467;-64
2023/09/13 03:33:54;;;;;;;0.10;0.10;;;;;;;21.79;95.90;99904.19;5058965;28;20143;-64
2023/09/13 03:36:20;;;;;;;0.10;0.10;;;;;;;21.71;96.27;99898.47;5076677;28;20012;-63
2023/09/13 03:38:46;;;;;;;0.10;0.10;;;;;;;21.68;96.54;99882.50;5083628;28;20395;-64
2023/09/13 03:41:14;;;;;;;0.10;0.10;;;;;;;21.64;96.60;99876.47;5067876;28;20039;-64
2023/09/13 03:43:40;;;;;;;0.10;0.10;;;;;;;21.63;97.12;99865.75;5060702;28;20127;-63
2023/09/13 03:46:06;;;;;;;0.10;0.10;;;;;;;21.66;97.75;99887.16;5068113;28;20103;-64
2023/09/13 03:48:33;;;;;;;0.10;0.10;;;;;;;21.58;98.32;99885.03;5062455;28;20060;-63
2023/09/13 03:50:59;;;;;;;0.10;0.10;;;;;;;21.55;98.92;99879.88;5068228;28;20021;-63
2023/09/13 03:53:25;;;;;;;0.10;0.10;;;;;;;21.44;99.26;99882.59;5066152;28;20039;-63
2023/09/13 03:55:51;;;;;;;0.10;0.10;;;;;;;21.39;99.99;99886.63;5063585;28;20036;-63
2023/09/13 03:58:17;;;;;;;0.10;0.10;;;;;;;21.38;100.00;99887.63;5065772;28;20480;-64
2023/09/13 04:00:43;;;;;;;0.10;0.10;;;;;;;21.41;100.00;99892.78;5067859;28;20043;-63
2023/09/13 04:03:08;;;;;;;0.10;0.10;;;;;;;21.41;100.00;99906.31;5063217;28;20056;-63
2023/09/13 04:05:34;;;;;;;0.10;0.10;;;;;;;21.32;100.00;99888.94;5067418;28;20029;-64
2023/09/13 04:08:00;;;;;;;0.10;0.10;;;;;;;21.43;100.00;99901.66;5063720;28;20188;-63
2023/09/13 04:10:25;;;;;;;0.10;0.10;;;;;;;21.44;100.00;99914.19;5065907;28;20024;-63
2023/09/13 04:12:50;;;;;;;0.10;0.10;;;;;;;21.48;100.00;99915.69;5081415;28;20518;-63
2023/09/13 04:15:16;;;;;;;0.10;0.10;;;;;;;21.50;100.00;99917.28;5071256;28;20024;-63
2023/09/13 04:17:42;;;;;;;0.03;0.03;;;;;;;21.53;99.65;99925.16;5082257;28;20504;-63
2023/09/13 04:20:09;;;;;;;0.10;0.10;;;;;;;21.64;99.54;99922.47;5079112;28;20121;-63
2023/09/13 04:22:34;;;;;;;0.10;0.10;;;;;;;21.67;99.21;99915.94;5066638;28;20585;-63
2023/09/13 04:25:00;;;;;;;0.10;0.10;;;;;;;21.67;99.94;99915.94;5083492;28;20035;-63
2023/09/13 04:27:25;;;;;;;0.10;0.10;;;;;;;21.66;100.00;99916.94;5067069;28;20349;-62
2023/09/13 04:29:54;;;;;;;0.10;0.10;;;;;;;21.64;100.00;99924.31;5073031;28;20073;-62
2023/09/13 04:32:20;;;;;;;0.10;0.10;;;;;;;21.58;100.00;99922.94;5067148;28;20032;-62
2023/09/13 04:34:46;;;;;;;0.10;0.10;;;;;;;21.53;100.00;99925.16;5077583;28;20025;-62
2023/09/13 04:37:12;;;;;;;0.10;0.10;;;;;;;21.51;100.00;99934.38;5087182;28;20093;-63
2023/09/13 04:39:37;;;;;;;0.10;0.10;;;;;;;21.48;100.00;99931.94;5086519;28;20046;-62
2023/09/13 04:42:03;;;;;;;0.10;0.10;;;;;;;21.47;100.00;99941.88;5084215;28;20036;-62
2023/09/13 04:44:29;;;;;;;0.10;0.10;;;;;;;21.47;100.00;99935.59;5084568;28;20032;-62
2023/09/13 04:46:56;;;;;;;0.10;0.10;;;;;;;21.31;100.00;99935.06;5073595;28;20024;-62
2023/09/13 04:49:22;;;;;;;0.10;0.10;;;;;;;21.34;100.00;99934.84;5086724;28;20032;-62
2023/09/13 04:51:47;;;;;;;0.10;0.10;;;;;;;21.35;100.00;99931.16;5060898;28;20033;-63
2023/09/13 04:54:13;;;;;;;0.10;0.10;;;;;;;21.34;100.00;99942.94;5079996;28;20032;-63
2023/09/13 04:56:38;;;;;;;0.10;0.10;;;;;;;21.27;100.00;99934.44;5069859;28;20020;-62
2023/09/13 04:59:04;;;;;;;0.10;0.10;;;;;;;21.25;100.00;99930.16;5068300;28;20039;-62
2023/09/13 05:01:30;;;;;;;0.10;0.10;;;;;;;21.24;100.00;99939.22;5075300;28;20043;-63
2023/09/13 05:03:56;;;;;;;0.10;0.10;;;;;;;21.26;100.00;99942.69;5085259;28;20032;-63
2023/09/13 05:06:22;;;;;;;0.10;0.10;;;;;;;21.22;100.00;99941.22;5084523;28;20085;-63
2023/09/13 05:08:50;;;;;;;0.10;0.10;;;;;;;21.20;100.00;99943.19;5083927;28;20092;-63
2023/09/13 05:11:15;;;;;;;0.10;0.10;;;;;;;21.14;100.00;99955.31;5066250;28;20044;-62
2023/09/13 05:13:41;;;;;;;0.10;0.10;;;;;;;21.09;100.00;99962.09;5067634;28;20020;-63
2023/09/13 05:16:06;;;;;;;0.10;0.10;;;;;;;21.03;100.00;99968.81;5049227;28;20677;-63
2023/09/13 05:18:33;;;;;;;0.10;0.10;;;;;;;20.95;100.00;99966.63;5048289;28;20118;-62
2023/09/13 05:20:58;;;;;;;0.10;0.10;;;;;;;20.92;100.00;99966.88;5064240;28;20390;-63
2023/09/13 05:23:24;;;;;;;0.10;0.10;;;;;;;20.88;100.00;99984.31;5064130;28;20024;-62
2023/09/13 05:25:49;;;;;;;0.10;0.10;;;;;;;20.86;100.00;99974.59;5060164;28;20052;-63
2023/09/13 05:28:15;;;;;;;0.20;0.20;;;;;;;20.85;100.00;99971.03;5064589;28;20028;-62
2023/09/13 05:30:45;;;;;;;0.10;0.10;;;;;;;20.87;100.00;99979.88;5067286;28;20110;-62
2023/09/13 05:33:11;;;;;;;0.10;0.10;;;;;;;20.90;100.00;99984.22;5068631;28;20024;-62
2023/09/13 05:35:36;;;;;;;0.10;0.10;;;;;;;20.94;100.00;99986.56;5059170;28;20106;-63
2023/09/13 05:38:01;;;;;;;0.10;0.10;;;;;;;20.95;100.00;99987.44;5053112;28;20059;-63
2023/09/13 05:40:28;;;;;;;0.10;0.10;;;;;;;20.99;100.00;99991.63;5068163;28;20047;-63
2023/09/13 05:42:54;;;;;;;0.10;0.10;;;;;;;21.01;100.00;99980.72;5070091;28;20385;-62
2023/09/13 05:45:19;;;;;;;0.10;0.10;;;;;;;21.05;100.00;99987.63;5069313;28;20024;-62
2023/09/13 05:47:47;;;;;;;0.10;0.10;;;;;;;21.10;100.00;99993.56;5068390;28;20487;-63
2023/09/13 05:50:12;;;;;;;0.10;0.10;;;;;;;21.11;100.00;99997.97;5052200;28;20028;-62
2023/09/13 05:52:39;;;;;;;0.10;0.10;;;;;;;21.16;100.00;99998.47;5066901;28;20028;-63
2023/09/13 05:55:05;;;;;;;0.10;0.10;;;;;;;21.25;100.00;100001.34;5062446;28;20020;-63
2023/09/13 05:57:30;;;;;;;0.10;0.10;;;;;;;21.15;100.00;100005.75;5054733;28;20037;-63
2023/09/13 05:59:56;;;;;;;0.10;0.10;;;;;;;21.17;100.00;100008.34;5054922;28;20033;-63
2023/09/13 06:02:21;;;;;;;0.10;0.10;;;;;;;21.14;100.00;100013.97;5054315;28;20031;-63
2023/09/13 06:04:47;;;;;;;0.10;0.10;;;;;;;21.21;100.00;99999.00;5066372;28;20416;-63
2023/09/13 06:07:12;;;;;;;0.10;0.10;;;;;;;21.25;100.00;100009.47;5052437;28;20024;-62
2023/09/13 06:09:37;;;;;;;0.10;0.10;;;;;;;21.31;100.00;100011.72;5060140;28;20046;-62
2023/09/13 06:12:03;;;;;;;0.10;0.10;;;;;;;21.37;100.00;100015.78;5079243;28;20052;-62
2023/09/13 06:14:30;;;;;;;0.10;0.10;;;;;;;21.43;100.00;100005.34;5066436;28;20071;-63
2023/09/13 06:16:55;;;;;;;0.10;0.10;;;;;;;21.46;100.00;100017.78;5039031;28;20113;-62
2023/09/13 06:19:21;;;;;;;0.10;0.10;;;;;;;21.48;100.00;100018.53;5063027;28;20035;-63
2023/09/13 06:21:47;;;;;;;0.10;0.10;;;;;;;21.54;100.00;100027.06;5069944;28;20036;-63
2023/09/13 06:24:12;;;;;;;0.10;0.10;;;;;;;21.57;100.00;100029.50;5067727;28;20132;-62
2023/09/13 06:26:37;;;;;;;0.10;0.10;;;;;;;21.65;100.00;100031.63;5077372;28;20035;-63
2023/09/13 06:29:03;;;;;;;0.10;0.10;;;;;;;21.66;100.00;100028.78;5089082;28;20028;-63
2023/09/13 06:31:28;;;;;;;0.10;0.10;;;;;;;21.69;100.00;100038.53;5059985;28;20024;-63
2023/09/13 06:33:54;;;;;;;0.10;0.10;;;;;;;21.69;100.00;100044.81;5064961;28;20029;-62
2023/09/13 06:36:20;;;;;;;0.10;0.10;;;;;;;21.66;100.00;100027.94;5067746;28;20024;-62
2023/09/13 06:38:45;;;;;;;0.10;0.10;;;;;;;21.68;100.00;100040.38;5069592;28;20029;-63
2023/09/13 06:41:10;;;;;;;0.10;0.10;;;;;;;21.66;100.00;100049.59;5057304;28;20491;-63
2023/09/13 06:43:37;;;;;;;0.10;0.10;;;;;;;21.67;100.00;100045.91;5068134;28;20098;-63
2023/09/13 06:46:03;;;;;;;0.10;0.10;;;;;;;21.67;100.00;100051.31;5068416;28;20062;-63
2023/09/13 06:48:28;;;;;;;0.10;0.10;;;;;;;21.68;100.00;100044.94;5064135;28;20028;-63
2023/09/13 06:50:55;;;;;;;0.10;0.10;;;;;;;21.69;100.00;100049.38;5063360;28;20032;-63
2023/09/13 06:53:20;;;;;;;0.10;0.10;;;;;;;21.70;100.00;100045.66;5063301;28;20491;-63
2023/09/13 06:55:46;;;;;;;0.10;0.10;;;;;;;21.77;100.00;100052.38;5065587;28;20032;-63
2023/09/13 06:58:13;;;;;;;0.10;0.10;;;;;;;21.80;100.00;100052.13;5068764;28;20090;-62
2023/09/13 07:00:39;;;;;;;0.20;0.20;;;;;;;21.85;100.00;100055.34;5066178;28;20496;-62
2023/09/13 07:03:06;;;;;;;0.10;0.10;;;;;;;21.92;100.00;100059.31;5058236;28;20052;-63
2023/09/13 07:05:31;;;;;;;0.10;0.10;;;;;;;21.99;100.00;100057.84;5063756;28;20024;-62
2023/09/13 07:07:58;;;;;;;0.10;0.10;;;;;;;22.01;100.00;100050.44;5066707;28;20028;-63
2023/09/13 07:10:23;;;;;;;0.10;0.10;;;;;;;22.08;100.00;100057.97;5068256;28;20475;-63
2023/09/13 07:12:49;;;;;;;0.10;0.10;;;;;;;22.15;100.00;100058.34;5062996;28;20099;-63
2023/09/13 07:15:16;;;;;;;0.10;0.10;;;;;;;22.24;100.00;100057.59;5061182;28;20025;-63
2023/09/13 07:17:42;;;;;;;0.10;0.10;;;;;;;22.33;100.00;100053.28;5061136;28;20052;-61
2023/09/13 07:20:08;;;;;;;0.10;0.10;;;;;;;22.43;100.00;100057.00;5061578;28;20617;-62
2023/09/13 07:22:34;;;;;;;0.10;0.10;;;;;;;22.52;100.00;100061.69;5039950;28;20412;-61
2023/09/13 07:25:00;;;;;;;0.10;0.10;;;;;;;22.53;100.00;100061.59;5042116;28;20033;-62
2023/09/13 07:27:25;;;;;;;0.10;0.10;;;;;;;22.62;100.00;100068.97;5060309;28;20024;-61
2023/09/13 07:29:51;;;;;;;0.10;0.10;;;;;;;22.69;100.00;100062.06;5045739;28;20028;-62
2023/09/13 07:32:17;;;;;;;0.10;0.10;;;;;;;22.77;100.00;100061.44;5067318;28;20025;-62
2023/09/13 07:34:43;;;;;;;0.10;0.10;;;;;;;22.85;100.00;100059.81;5048577;28;20028;-61
2023/09/13 07:37:09;;;;;;;0.10;0.10;;;;;;;22.89;100.00;100072.16;5048322;28;20039;-61
2023/09/13 07:39:36;;;;;;;0.10;0.10;;;;;;;22.96;100.00;100067.97;5061814;28;20530;-61
2023/09/13 07:42:03;;;;;;;0.10;0.10;;;;;;;23.03;100.00;100079.16;5064280;28;20083;-62
2023/09/13 07:44:29;;;;;;;0.10;0.10;;;;;;;23.03;99.44;100074.56;5062615;28;20214;-61
2023/09/13 07:46:54;;;;;;;0.10;0.10;;;;;;;23.09;98.82;100071.38;5031089;28;20111;-61
2023/09/13 07:49:20;;;;;;;0.10;0.10;;;;;;;23.11;98.51;100077.53;5027101;28;20051;-61
2023/09/13 07:51:46;;;;;;;0.10;0.10;;;;;;;23.20;98.73;100084.91;5049495;28;20032;-61
2023/09/13 07:54:12;;;;;;;0.10;0.10;;;;;;;23.31;97.84;100084.91;5034570;28;20092;-61
2023/09/13 07:56:38;;;;;;;0.10;0.10;;;;;;;23.29;97.67;100089.59;5053135;28;20039;-61
2023/09/13 07:59:04;;;;;;;0.10;0.10;;;;;;;23.36;97.17;100093.53;5047821;28;20047;-61
2023/09/13 08:01:29;;;;;;;0.10;0.10;;;;;;;23.38;97.67;100086.13;5050548;28;20488;-62
2023/09/13 08:03:55;;;;;;;0.10;0.10;;;;;;;23.43;96.01;100094.75;5054718;28;20025;-61
2023/09/13 08:06:22;;;;;;;0.10;0.10;;;;;;;23.49;96.30;100100.66;5065422;28;20135;-62
2023/09/13 08:08:50;;;;;;;0.10;0.10;;;;;;;23.54;95.77;100101.13;5067053;28;20501;-61
2023/09/13 08:11:16;;;;;;;0.10;0.10;;;;;;;23.66;95.44;100095.50;5057018;28;20450;-61
2023/09/13 08:13:41;;;;;;;0.10;0.10;;;;;;;23.84;93.94;100101.25;5063033;28;20021;-62
2023/09/13 08:16:07;;;;;;;0.10;0.10;;;;;;;23.87;94.25;100098.25;5065763;28;20031;-61
2023/09/13 08:18:32;;;;;;;0.10;0.10;;;;;;;23.93;93.17;100109.47;5060974;28;20049;-62
2023/09/13 08:20:58;;;;;;;0.10;0.10;;;;;;;23.91;93.10;100105.13;5067782;28;20071;-61
2023/09/13 08:23:24;;;;;;;0.10;0.10;;;;;;;23.91;93.94;100110.56;5054119;28;20035;-61
2023/09/13 08:25:49;;;;;;;0.10;0.10;;;;;;;23.87;94.00;100109.97;5063737;28;20036;-62
2023/09/13 08:28:14;;;;;;;0.10;0.10;;;;;;;23.74;92.89;100108.44;5055602;28;20020;-62
2023/09/13 08:30:40;;;;;;;0.10;0.10;;;;;;;23.62;93.06;100120.34;5060853;28;20052;-62
2023/09/13 08:33:07;;;;;;;0.10;0.10;;;;;;;23.62;92.68;100113.06;5053371;28;20040;-61
2023/09/13 08:35:32;;;;;;;0.10;0.10;;;;;;;23.68;92.59;100114.38;5049525;28;20108;-61
2023/09/13 08:37:58;;;;;;;0.10;0.10;;;;;;;23.83;90.39;100119.38;5053078;28;20129;-61
2023/09/13 08:40:24;;;;;;;0.10;0.10;;;;;;;24.28;88.45;100125.47;5064537;28;20028;-62
2023/09/13 08:42:51;;;;;;;0.10;0.10;;;;;;;25.35;85.03;100119.38;5052500;28;20574;-61
2023/09/13 08:45:16;;;;;;;0.10;0.10;;;;;;;26.16;77.15;100118.13;5058308;28;20020;-61
2023/09/13 08:47:44;;;;;;;0.00;0.00;;;;;;;26.99;74.11;100121.75;5069195;28;20044;-61
2023/09/13 08:50:10;;;;;;;0.10;0.10;;;;;;;27.32;68.95;100123.03;5067160;28;20446;-61
2023/09/13 08:52:37;;;;;;;0.00;0.00;;;;;;;27.91;67.87;100128.78;5033677;28;20039;-61
2023/09/13 08:55:06;;;;;;;0.10;0.10;;;;;;;28.61;65.37;100119.63;5060370;28;20078;-62
2023/09/13 08:57:33;;;;;;;0.00;0.00;;;;;;;28.27;63.89;100136.78;5048486;28;20048;-61
2023/09/13 08:59:59;;;;;;;0.00;0.00;;;;;;;28.11;63.78;100147.63;5049252;28;20111;-61
2023/09/13 09:02:26;;;;;;;0.00;0.00;;;;;;;28.04;63.83;100146.53;5051742;28;20116;-61
2023/09/13 09:04:52;;;;;;;0.00;0.00;;;;;;;28.08;66.43;100145.19;5049385;28;20039;-61
2023/09/13 09:07:19;;;;;;;0.00;0.00;;;;;;;27.93;65.27;100152.25;5073124;28;20403;-62
2023/09/13 09:09:49;;;;;;;0.00;0.00;;;;;;;27.77;65.93;100149.31;5073863;28;20480;-62
2023/09/13 09:12:18;;;;;;;0.00;0.00;;;;;;;27.86;66.36;100155.72;5072714;28;20088;-62
2023/09/13 09:14:46;;;;;;;0.03;0.03;;;;;;;28.27;64.19;100153.22;5055733;28;20029;-61
2023/09/13 09:17:14;;;;;;;0.00;0.00;;;;;;;28.48;62.29;100150.97;5053647;28;20651;-63
2023/09/13 09:19:40;;;;;;;0.00;0.00;;;;;;;28.41;60.22;100154.53;5053755;28;20035;-63
2023/09/13 09:22:07;;;;;;;0.00;0.00;;;;;;;28.58;62.08;100158.28;5060645;28;20372;-63
2023/09/13 09:24:33;;;;;;;0.00;0.00;;;;;;;28.36;61.54;100146.81;5053316;28;20029;-63
2023/09/13 09:26:59;;;;;;;0.00;0.00;;;;;;;28.19;62.64;100158.63;5052991;28;20021;-63
2023/09/13 09:29:44;;;;;;;0.00;0.00;;;;;;;28.23;63.12;100167.38;5052923;28;20028;-63
2023/09/13 09:32:12;;;;;;;0.00;0.00;;;;;;;28.21;61.81;100159.34;5055537;28;20857;-62
2023/09/13 09:34:40;;;;;;;0.00;0.00;;;;;;;27.95;63.69;100166.63;5055434;28;20032;-62
2023/09/13 09:37:09;;;;;;;0.00;0.00;;;;;;;27.55;66.46;100166.16;5055333;28;20032;-63
2023/09/13 09:39:41;;;;;;;0.00;0.00;;;;;;;27.37;65.96;100159.81;5073465;28;20032;-62
2023/09/13 09:42:13;;;;;;;0.00;0.00;;;;;;;27.28;65.25;100163.47;5055622;28;20021;-63
2023/09/13 09:44:38;;;;;;;0.00;0.00;;;;;;;27.00;64.71;100156.25;5051425;28;20128;-62
2023/09/13 09:47:03;;;;;;;0.00;0.00;;;;;;;26.90;66.57;100156.25;5050829;28;20036;-62
2023/09/13 09:49:29;;;;;;;0.00;0.00;;;;;;;26.82;68.83;100158.03;5051670;28;20024;-62
2023/09/13 09:51:55;;;;;;;0.00;0.00;;;;;;;26.68;68.66;100156.66;5052900;28;20039;-62
2023/09/13 09:54:20;;;;;;;0.00;0.00;;;;;;;26.54;70.11;100153.50;5053130;28;20556;-62
2023/09/13 09:56:46;;;;;;;0.00;0.00;;;;;;;26.43;71.17;100151.78;5060771;28;20072;-62
2023/09/13 09:59:12;;;;;;;0.00;0.00;;;;;;;26.27;71.54;100143.38;5059395;28;20016;-62
2023/09/13 10:01:38;;;;;;;0.00;0.00;;;;;;;26.33;72.20;100150.06;5069127;28;20546;-62
2023/09/13 10:04:11;;;;;;;0.00;0.00;;;;;;;26.37;72.43;100154.25;5052274;28;20484;-62
2023/09/13 10:06:37;;;;;;;0.00;0.00;;;;;;;26.49;70.40;100164.00;5054113;28;20037;-62
2023/09/13 10:09:04;;;;;;;0.00;0.00;;;;;;;26.49;69.96;100164.00;5054827;28;20044;-62
2023/09/13 10:11:30;;;;;;;0.10;0.10;;;;;;;26.76;69.65;100164.06;5065034;28;20048;-63
2023/09/13 10:13:55;;;;;;;0.00;0.00;;;;;;;27.17;68.48;100158.16;5068317;28;20016;-63
2023/09/13 10:16:26;;;;;;;0.10;0.10;;;;;;;27.58;65.71;100157.66;5050645;28;20017;-63
2023/09/13 10:18:52;;;;;;;0.00;0.00;;;;;;;27.86;64.28;100156.56;5050943;28;20130;-63
2023/09/13 10:21:26;;;;;;;0.00;0.00;;;;;;;27.95;64.00;100158.41;5051986;28;20031;-63
2023/09/13 10:24:23;;;;;;;0.00;0.00;;;;;;;28.09;63.17;100156.97;5056532;28;20066;-63
2023/09/13 10:26:52;;;;;;;0.00;0.00;;;;;;;28.24;62.46;100167.22;5046629;28;20442;-61
2023/09/13 10:29:27;;;;;;;0.00;0.00;;;;;;;28.08;61.67;100167.09;5060771;28;20045;-61
2023/09/13 10:31:57;;;;;;;0.00;0.00;;;;;;;27.94;62.19;100173.09;5051579;28;20103;-61
2023/09/13 10:34:26;;;;;;;0.00;0.00;;;;;;;28.03;63.02;100158.50;5065199;28;20103;-61
2023/09/13 10:37:08;;;;;;;0.10;0.10;;;;;;;28.24;61.45;100175.44;5071249;28;20104;-61
2023/09/13 10:39:41;;;;;;;0.00;0.00;;;;;;;28.27;60.43;100160.59;5060466;28;20140;-61
2023/09/13 10:42:07;;;;;;;;;;;;;;;28.32;61.09;100169.16;5069307;28;20054;-61
2023/09/13 10:44:36;;;;;;;0.00;0.00;;;;;;;28.08;59.77;100167.09;5051720;28;19962;-61
2023/09/13 10:47:03;;;;;;;0.00;0.00;;;;;;;28.24;61.97;100163.63;5069658;28;20391;-61
2023/09/13 10:49:29;;;;;;;0.00;0.00;;;;;;;28.41;63.07;100158.13;5055981;28;20032;-62
2023/09/13 10:51:59;;;;;;;0.00;0.00;;;;;;;28.57;61.42;100162.03;5069896;28;20029;-62
2023/09/13 10:54:25;;;;;;;0.00;0.00;;;;;;;28.26;61.60;100165.19;5071581;28;20032;-61
2023/09/13 10:56:53;;;;;;;0.00;0.00;;;;;;;28.08;62.95;100161.63;5071608;28;20361;-62
2023/09/13 10:59:19;;;;;;;0.00;0.00;;;;;;;27.74;62.98;100160.53;5068292;28;20025;-62
2023/09/13 11:01:48;;;;;;;0.00;0.00;;;;;;;27.50;64.36;100163.03;5073512;28;20487;-62
2023/09/13 11:04:14;;;;;;;0.00;0.00;;;;;;;27.09;67.77;100166.25;5071170;28;20028;-61
2023/09/13 11:06:42;;;;;;;0.00;0.00;;;;;;;26.82;69.61;100169.81;5071029;28;20028;-62
2023/09/13 11:09:15;;;;;;;0.00;0.00;;;;;;;26.70;71.63;100171.00;5057603;28;20396;-62
2023/09/13 11:11:50;;;;;;;0.00;0.00;;;;;;;26.06;75.61;100169.06;5053957;28;20083;-62
2023/09/13 11:14:19;;;;;;;0.00;0.00;;;;;;;25.86;77.21;100179.91;5060090;28;20078;-62
2023/09/13 11:16:47;;;;;;;0.00;0.00;;;;;;;25.53;79.07;100177.63;5068279;28;20035;-62
2023/09/13 11:19:15;;;;;;;0.00;0.00;;;;;;;25.47;81.55;100172.72;5070910;28;20107;-61
2023/09/13 11:21:52;;;;;;;0.00;0.00;;;;;;;25.34;81.14;100172.06;5067610;28;20032;-61
2023/09/13 11:24:40;;;;;;;0.00;0.00;;;;;;;25.33;80.99;100175.81;5062272;28;20357;-61
2023/09/13 11:27:13;;;;;;;0.00;0.00;;;;;;;25.39;80.93;100178.00;5070611;28;20028;-63